Bennington, New Hampshire
Current Conditions -  °F | °C
As of 10:55 AM on Friday 28 Nov 2014 (Local Time) from KEEN Reporting Station
Overcast Overcast  
Wind Chill: 22°   Ceiling: 2600
Heat Index: 28°   Visibility: 10mi
Dew Point: 21°   Wind: 6mph
Humidity: 74%   Direction: 360°N
Pressure: 30.08"   Gusts: NA
Location:  43°N, 71.92°W
Report Text: KEEN 281555Z AUTO 36005KT 10SM BKN026 OVC035 M02/M06 A3008 RMK AO1 P0001
Loading
Personal Weather Stations






























Interactive Weather Map New forecast layout! Learn more

10-Day Weather Forecast

Advertisements
Track Severe Weather on mobile